TimeEDT,TemperatureF,Dew PointF,Humidity,Sea Level PressureIn,VisibilityMPH,Wind Direction,Wind SpeedMPH,Gust SpeedMPH,PrecipitationIn,Events,Conditions,WindDirDegrees,DateUTC
12:54 AM,66.9,66.0,97,29.66,6.0,South,8.1,-,0.08,Rain-Thunderstorm,Light Thunderstorms and Rain,190,2013-06-13 04:54:00
1:38 AM,66.2,64.4,94,29.62,10.0,SSW,8.1,17.3,0.01,,Overcast,210,2013-06-13 05:38:00
1:54 AM,66.9,64.9,93,29.62,10.0,SSW,8.1,-,0.01,,Overcast,210,2013-06-13 05:54:00
2:15 AM,66.2,64.4,94,29.66,10.0,WNW,4.6,-,0.00,Rain-Thunderstorm,Light Thunderstorms and Rain,290,2013-06-13 06:15:00
2:54 AM,66.9,64.9,93,29.63,10.0,East,5.8,-,0.02,Rain-Thunderstorm,Light Thunderstorms and Rain,80,2013-06-13 06:54:00
3:11 AM,66.2,64.4,94,29.58,10.0,South,11.5,16.1,0.02,Rain,Light Rain,170,2013-06-13 07:11:00
3:54 AM,66.0,64.9,96,29.57,10.0,WSW,6.9,-,0.02,,Overcast,250,2013-06-13 07:54:00
4:25 AM,66.2,64.4,94,29.64,10.0,WNW,6.9,-,N/A,,Overcast,300,2013-06-13 08:25:00
4:33 AM,66.2,64.4,94,29.65,10.0,WNW,6.9,-,N/A,,Overcast,290,2013-06-13 08:33:00
4:54 AM,66.0,64.9,96,29.65,10.0,WNW,8.1,-,N/A,,Overcast,290,2013-06-13 08:54:00
5:54 AM,64.9,63.0,93,29.65,10.0,NW,6.9,-,N/A,,Mostly Cloudy,310,2013-06-13 09:54:00
6:54 AM,66.0,63.0,90,29.65,10.0,NNW,9.2,-,N/A,,Mostly Cloudy,330,2013-06-13 10:54:00
7:38 AM,66.2,64.4,94,29.70,10.0,NNW,10.4,-,N/A,,Mostly Cloudy,330,2013-06-13 11:38:00
7:54 AM,68.0,64.0,87,29.69,10.0,NNW,9.2,-,N/A,,Mostly Cloudy,340,2013-06-13 11:54:00
8:18 AM,66.2,64.4,94,29.72,10.0,NNW,9.2,-,N/A,,Overcast,340,2013-06-13 12:18:00
8:26 AM,68.0,64.4,88,29.72,10.0,NNW,10.4,-,N/A,,Overcast,340,2013-06-13 12:26:00
8:54 AM,66.9,64.0,90,29.73,8.0,NNW,12.7,-,0.00,,Light Drizzle,340,2013-06-13 12:54:00
9:22 AM,66.2,62.6,88,29.76,10.0,North,13.8,-,0.00,,Overcast,10,2013-06-13 13:22:00
9:42 AM,66.2,57.2,73,29.77,10.0,NNE,12.7,-,0.00,,Overcast,20,2013-06-13 13:42:00
9:54 AM,66.0,55.9,70,29.76,10.0,NNE,11.5,-,0.00,,Mostly Cloudy,30,2013-06-13 13:54:00
10:54 AM,68.0,57.9,70,29.80,10.0,NNW,12.7,19.6,N/A,,Mostly Cloudy,340,2013-06-13 14:54:00
11:54 AM,73.0,60.1,64,29.82,10.0,NNW,13.8,-,N/A,,Scattered Clouds,340,2013-06-13 15:54:00
12:54 PM,75.0,57.9,55,29.82,10.0,NNW,13.8,-,N/A,,Scattered Clouds,330,2013-06-13 16:54:00
1:54 PM,75.9,57.0,52,29.83,10.0,NW,15.0,24.2,N/A,,Scattered Clouds,320,2013-06-13 17:54:00
2:54 PM,78.1,55.9,46,29.84,10.0,NW,19.6,25.3,N/A,,Scattered Clouds,320,2013-06-13 18:54:00
3:54 PM,78.1,54.0,43,29.85,10.0,NNW,17.3,26.5,N/A,,Scattered Clouds,340,2013-06-13 19:54:00
4:54 PM,78.1,54.0,43,29.86,10.0,NNW,15.0,23.0,N/A,,Scattered Clouds,340,2013-06-13 20:54:00
5:54 PM,77.0,57.0,50,29.86,10.0,NW,15.0,23.0,N/A,,Scattered Clouds,310,2013-06-13 21:54:00
6:54 PM,73.9,54.0,50,29.87,10.0,NW,19.6,25.3,N/A,,Scattered Clouds,320,2013-06-13 22:54:00
7:54 PM,71.1,53.1,53,29.89,10.0,NW,10.4,-,N/A,,Scattered Clouds,310,2013-06-13 23:54:00
8:54 PM,66.9,53.1,61,29.91,10.0,NW,9.2,-,N/A,,Scattered Clouds,310,2013-06-14 00:54:00
9:54 PM,64.9,53.1,65,29.93,10.0,NW,8.1,-,N/A,,Partly Cloudy,320,2013-06-14 01:54:00
10:54 PM,63.0,53.1,70,29.95,10.0,NW,9.2,-,N/A,,Partly Cloudy,310,2013-06-14 02:54:00
11:54 PM,62.1,53.1,72,29.96,10.0,NW,5.8,-,N/A,,Partly Cloudy,310,2013-06-14 03:54:00